sensor_id;sensor_type;location;lat;lon;timestamp;P1;durP1;ratioP1;P2;durP2;ratioP2
45114;SDS011;30877;43.706;10.780;2023-03-14T00:01:10;4.35;;;2.17;;
45114;SDS011;30877;43.706;10.780;2023-03-14T00:03:40;6.60;;;2.50;;
45114;SDS011;30877;43.706;10.780;2023-03-14T00:06:08;8.35;;;2.25;;
45114;SDS011;30877;43.706;10.780;2023-03-14T00:08:37;4.80;;;2.53;;
45114;SDS011;30877;43.706;10.780;2023-03-14T00:11:06;8.95;;;2.33;;
45114;SDS011;30877;43.706;10.780;2023-03-14T00:13:36;7.50;;;2.30;;
45114;SDS011;30877;43.706;10.780;2023-03-14T00:16:04;6.82;;;2.00;;
45114;SDS011;30877;43.706;10.780;2023-03-14T00:18:34;6.72;;;2.13;;
45114;SDS011;30877;43.706;10.780;2023-03-14T00:21:02;6.75;;;2.08;;
45114;SDS011;30877;43.706;10.780;2023-03-14T00:23:32;8.32;;;2.25;;
45114;SDS011;30877;43.706;10.780;2023-03-14T00:26:02;9.93;;;2.47;;
45114;SDS011;30877;43.706;10.780;2023-03-14T00:28:32;5.15;;;2.00;;
45114;SDS011;30877;43.706;10.780;2023-03-14T00:31:03;4.95;;;1.70;;
45114;SDS011;30877;43.706;10.780;2023-03-14T00:33:32;4.03;;;1.30;;
45114;SDS011;30877;43.706;10.780;2023-03-14T00:36:03;4.07;;;1.67;;
45114;SDS011;30877;43.706;10.780;2023-03-14T00:38:32;6.88;;;2.15;;
45114;SDS011;30877;43.706;10.780;2023-03-14T00:41:02;5.63;;;2.22;;
45114;SDS011;30877;43.706;10.780;2023-03-14T00:43:31;7.63;;;2.03;;
45114;SDS011;30877;43.706;10.780;2023-03-14T00:45:58;4.82;;;1.50;;
45114;SDS011;30877;43.706;10.780;2023-03-14T00:48:27;4.25;;;2.08;;
45114;SDS011;30877;43.706;10.780;2023-03-14T00:50:55;6.13;;;1.73;;
45114;SDS011;30877;43.706;10.780;2023-03-14T00:53:23;3.88;;;1.48;;
45114;SDS011;30877;43.706;10.780;2023-03-14T00:55:51;8.48;;;2.47;;
45114;SDS011;30877;43.706;10.780;2023-03-14T00:58:18;5.75;;;1.63;;
45114;SDS011;30877;43.706;10.780;2023-03-14T01:00:46;6.93;;;1.95;;
45114;SDS011;30877;43.706;10.780;2023-03-14T01:03:14;5.10;;;1.60;;
45114;SDS011;30877;43.706;10.780;2023-03-14T01:05:44;6.18;;;2.03;;
45114;SDS011;30877;43.706;10.780;2023-03-14T01:08:11;9.02;;;2.08;;
45114;SDS011;30877;43.706;10.780;2023-03-14T01:10:39;5.60;;;1.65;;
45114;SDS011;30877;43.706;10.780;2023-03-14T01:13:08;5.30;;;2.05;;
45114;SDS011;30877;43.706;10.780;2023-03-14T01:15:36;6.53;;;2.55;;
45114;SDS011;30877;43.706;10.780;2023-03-14T01:18:04;4.95;;;1.90;;
45114;SDS011;30877;43.706;10.780;2023-03-14T01:20:32;6.03;;;2.08;;
45114;SDS011;30877;43.706;10.780;2023-03-14T01:23:02;6.00;;;2.08;;
45114;SDS011;30877;43.706;10.780;2023-03-14T01:25:29;6.70;;;1.70;;
45114;SDS011;30877;43.706;10.780;2023-03-14T01:27:58;6.88;;;1.85;;
45114;SDS011;30877;43.706;10.780;2023-03-14T01:30:28;6.47;;;2.80;;
45114;SDS011;30877;43.706;10.780;2023-03-14T01:32:55;6.30;;;2.10;;
45114;SDS011;30877;43.706;10.780;2023-03-14T01:35:23;7.55;;;1.88;;
45114;SDS011;30877;43.706;10.780;2023-03-14T01:37:51;6.32;;;2.08;;
45114;SDS011;30877;43.706;10.780;2023-03-14T01:40:22;8.38;;;2.28;;
45114;SDS011;30877;43.706;10.780;2023-03-14T01:42:53;8.90;;;2.65;;
45114;SDS011;30877;43.706;10.780;2023-03-14T01:48:28;7.15;;;2.50;;
45114;SDS011;30877;43.706;10.780;2023-03-14T01:51:02;5.80;;;2.00;;
45114;SDS011;30877;43.706;10.780;2023-03-14T01:53:36;6.90;;;2.10;;
45114;SDS011;30877;43.706;10.780;2023-03-14T01:56:08;6.07;;;1.90;;
45114;SDS011;30877;43.706;10.780;2023-03-14T01:58:37;4.53;;;1.90;;
45114;SDS011;30877;43.706;10.780;2023-03-14T02:01:07;9.32;;;2.08;;
45114;SDS011;30877;43.706;10.780;2023-03-14T02:03:38;4.93;;;1.77;;
45114;SDS011;30877;43.706;10.780;2023-03-14T02:06:12;8.02;;;2.38;;
45114;SDS011;30877;43.706;10.780;2023-03-14T02:08:45;5.10;;;1.67;;
45114;SDS011;30877;43.706;10.780;2023-03-14T02:11:23;6.65;;;2.03;;
45114;SDS011;30877;43.706;10.780;2023-03-14T02:14:05;7.47;;;2.10;;
45114;SDS011;30877;43.706;10.780;2023-03-14T02:17:00;5.65;;;1.88;;
45114;SDS011;30877;43.706;10.780;2023-03-14T02:19:55;5.53;;;1.92;;
45114;SDS011;30877;43.706;10.780;2023-03-14T02:22:38;5.70;;;2.05;;
45114;SDS011;30877;43.706;10.780;2023-03-14T02:25:10;5.95;;;1.90;;
45114;SDS011;30877;43.706;10.780;2023-03-14T02:27:45;5.18;;;1.70;;
45114;SDS011;30877;43.706;10.780;2023-03-14T02:30:16;9.30;;;2.05;;
45114;SDS011;30877;43.706;10.780;2023-03-14T02:32:46;6.20;;;1.30;;
45114;SDS011;30877;43.706;10.780;2023-03-14T02:35:19;7.53;;;1.65;;
45114;SDS011;30877;43.706;10.780;2023-03-14T02:37:51;6.38;;;1.70;;
45114;SDS011;30877;43.706;10.780;2023-03-14T02:40:27;7.78;;;1.38;;
45114;SDS011;30877;43.706;10.780;2023-03-14T02:42:57;8.35;;;1.73;;
45114;SDS011;30877;43.706;10.780;2023-03-14T02:45:32;5.97;;;1.45;;
45114;SDS011;30877;43.706;10.780;2023-03-14T02:48:07;6.20;;;1.60;;
45114;SDS011;30877;43.706;10.780;2023-03-14T02:50:41;4.65;;;1.60;;
45114;SDS011;30877;43.706;10.780;2023-03-14T02:53:11;4.50;;;1.70;;
45114;SDS011;30877;43.706;10.780;2023-03-14T02:55:44;4.63;;;1.65;;
45114;SDS011;30877;43.706;10.780;2023-03-14T02:58:17;6.25;;;1.20;;
45114;SDS011;30877;43.706;10.780;2023-03-14T03:00:51;4.28;;;1.42;;
45114;SDS011;30877;43.706;10.780;2023-03-14T03:03:19;5.55;;;1.95;;
45114;SDS011;30877;43.706;10.780;2023-03-14T03:05:48;7.35;;;1.60;;
45114;SDS011;30877;43.706;10.780;2023-03-14T03:08:18;5.05;;;1.83;;
45114;SDS011;30877;43.706;10.780;2023-03-14T03:10:47;6.85;;;1.80;;
45114;SDS011;30877;43.706;10.780;2023-03-14T03:13:17;7.15;;;1.40;;
45114;SDS011;30877;43.706;10.780;2023-03-14T03:15:51;5.38;;;1.55;;
45114;SDS011;30877;43.706;10.780;2023-03-14T03:18:20;6.20;;;1.50;;
45114;SDS011;30877;43.706;10.780;2023-03-14T03:20:48;6.70;;;1.80;;
45114;SDS011;30877;43.706;10.780;2023-03-14T03:23:16;6.05;;;1.73;;
45114;SDS011;30877;43.706;10.780;2023-03-14T03:25:47;5.43;;;1.67;;
45114;SDS011;30877;43.706;10.780;2023-03-14T03:28:18;5.63;;;1.70;;
45114;SDS011;30877;43.706;10.780;2023-03-14T03:30:46;4.97;;;1.80;;
45114;SDS011;30877;43.706;10.780;2023-03-14T03:33:15;5.78;;;2.00;;
45114;SDS011;30877;43.706;10.780;2023-03-14T03:35:45;6.22;;;2.10;;
45114;SDS011;30877;43.706;10.780;2023-03-14T03:38:18;6.13;;;1.95;;
45114;SDS011;30877;43.706;10.780;2023-03-14T03:40:50;5.10;;;2.17;;
45114;SDS011;30877;43.706;10.780;2023-03-14T03:43:20;7.07;;;1.98;;
45114;SDS011;30877;43.706;10.780;2023-03-14T03:45:49;4.90;;;1.90;;
45114;SDS011;30877;43.706;10.780;2023-03-14T03:48:19;5.95;;;1.95;;
45114;SDS011;30877;43.706;10.780;2023-03-14T03:50:47;6.00;;;1.77;;
45114;SDS011;30877;43.706;10.780;2023-03-14T03:53:20;5.28;;;1.90;;
45114;SDS011;30877;43.706;10.780;2023-03-14T03:56:01;6.55;;;2.20;;
45114;SDS011;30877;43.706;10.780;2023-03-14T03:58:31;6.90;;;2.17;;
45114;SDS011;30877;43.706;10.780;2023-03-14T04:01:01;6.07;;;1.50;;
45114;SDS011;30877;43.706;10.780;2023-03-14T04:03:29;6.40;;;1.65;;
45114;SDS011;30877;43.706;10.780;2023-03-14T04:05:58;8.18;;;1.67;;
45114;SDS011;30877;43.706;10.780;2023-03-14T04:08:27;5.82;;;1.67;;
45114;SDS011;30877;43.706;10.780;2023-03-14T04:10:57;4.90;;;1.52;;
45114;SDS011;30877;43.706;10.780;2023-03-14T04:13:57;4.70;;;1.42;;
45114;SDS011;30877;43.706;10.780;2023-03-14T04:16:26;6.35;;;1.55;;
45114;SDS011;30877;43.706;10.780;2023-03-14T04:19:01;4.88;;;1.40;;
45114;SDS011;30877;43.706;10.780;2023-03-14T04:21:31;4.40;;;1.10;;
45114;SDS011;30877;43.706;10.780;2023-03-14T04:23:59;6.55;;;1.38;;
45114;SDS011;30877;43.706;10.780;2023-03-14T04:26:31;4.95;;;0.93;;
45114;SDS011;30877;43.706;10.780;2023-03-14T04:29:00;6.57;;;1.60;;
45114;SDS011;30877;43.706;10.780;2023-03-14T04:31:29;4.70;;;1.30;;
45114;SDS011;30877;43.706;10.780;2023-03-14T04:33:58;3.95;;;1.17;;
45114;SDS011;30877;43.706;10.780;2023-03-14T04:36:33;5.65;;;1.52;;
45114;SDS011;30877;43.706;10.780;2023-03-14T04:39:08;6.75;;;1.20;;
45114;SDS011;30877;43.706;10.780;2023-03-14T04:41:41;6.80;;;1.52;;
45114;SDS011;30877;43.706;10.780;2023-03-14T04:44:13;6.47;;;2.35;;
45114;SDS011;30877;43.706;10.780;2023-03-14T04:46:41;5.70;;;2.03;;
45114;SDS011;30877;43.706;10.780;2023-03-14T04:49:23;7.28;;;2.50;;
45114;SDS011;30877;43.706;10.780;2023-03-14T04:51:51;5.07;;;1.98;;
45114;SDS011;30877;43.706;10.780;2023-03-14T04:54:21;7.35;;;2.10;;
45114;SDS011;30877;43.706;10.780;2023-03-14T04:56:54;7.88;;;1.90;;
45114;SDS011;30877;43.706;10.780;2023-03-14T04:59:25;6.65;;;2.17;;
45114;SDS011;30877;43.706;10.780;2023-03-14T05:01:57;5.75;;;1.55;;
45114;SDS011;30877;43.706;10.780;2023-03-14T05:05:04;8.48;;;1.88;;
45114;SDS011;30877;43.706;10.780;2023-03-14T05:08:08;5.28;;;1.50;;
45114;SDS011;30877;43.706;10.780;2023-03-14T05:10:55;6.88;;;1.40;;
45114;SDS011;30877;43.706;10.780;2023-03-14T05:13:35;6.60;;;2.00;;
45114;SDS011;30877;43.706;10.780;2023-03-14T05:16:26;4.95;;;2.00;;
45114;SDS011;30877;43.706;10.780;2023-03-14T05:19:01;5.78;;;1.88;;
45114;SDS011;30877;43.706;10.780;2023-03-14T05:22:04;7.05;;;1.67;;
45114;SDS011;30877;43.706;10.780;2023-03-14T05:24:58;5.25;;;1.85;;
45114;SDS011;30877;43.706;10.780;2023-03-14T05:27:59;4.38;;;1.63;;
45114;SDS011;30877;43.706;10.780;2023-03-14T05:30:45;5.88;;;1.90;;
45114;SDS011;30877;43.706;10.780;2023-03-14T05:33:36;6.43;;;1.48;;
45114;SDS011;30877;43.706;10.780;2023-03-14T05:36:28;6.85;;;2.08;;
45114;SDS011;30877;43.706;10.780;2023-03-14T05:39:16;6.60;;;2.10;;
45114;SDS011;30877;43.706;10.780;2023-03-14T05:42:05;7.13;;;2.60;;
45114;SDS011;30877;43.706;10.780;2023-03-14T05:44:53;5.78;;;1.85;;
45114;SDS011;30877;43.706;10.780;2023-03-14T05:47:40;5.57;;;1.95;;
45114;SDS011;30877;43.706;10.780;2023-03-14T05:50:28;13.48;;;6.00;;
45114;SDS011;30877;43.706;10.780;2023-03-14T05:53:16;15.50;;;8.20;;
45114;SDS011;30877;43.706;10.780;2023-03-14T05:56:02;10.35;;;5.25;;
45114;SDS011;30877;43.706;10.780;2023-03-14T05:58:47;9.20;;;3.58;;
45114;SDS011;30877;43.706;10.780;2023-03-14T06:01:42;10.30;;;4.25;;
45114;SDS011;30877;43.706;10.780;2023-03-14T06:04:17;8.60;;;4.00;;
45114;SDS011;30877;43.706;10.780;2023-03-14T06:06:51;7.75;;;3.60;;
45114;SDS011;30877;43.706;10.780;2023-03-14T06:09:21;9.50;;;3.22;;
45114;SDS011;30877;43.706;10.780;2023-03-14T06:11:53;6.97;;;2.90;;
45114;SDS011;30877;43.706;10.780;2023-03-14T06:14:22;9.02;;;3.13;;
45114;SDS011;30877;43.706;10.780;2023-03-14T06:16:51;7.00;;;2.33;;
45114;SDS011;30877;43.706;10.780;2023-03-14T06:19:22;11.75;;;2.88;;
45114;SDS011;30877;43.706;10.780;2023-03-14T06:21:52;7.57;;;2.53;;
45114;SDS011;30877;43.706;10.780;2023-03-14T06:24:21;7.28;;;2.63;;
45114;SDS011;30877;43.706;10.780;2023-03-14T06:26:51;8.15;;;2.65;;
45114;SDS011;30877;43.706;10.780;2023-03-14T06:29:20;8.82;;;2.80;;
45114;SDS011;30877;43.706;10.780;2023-03-14T06:31:48;9.05;;;2.50;;
45114;SDS011;30877;43.706;10.780;2023-03-14T06:34:18;8.32;;;2.63;;
45114;SDS011;30877;43.706;10.780;2023-03-14T06:36:46;9.07;;;2.50;;
45114;SDS011;30877;43.706;10.780;2023-03-14T06:39:16;9.93;;;2.83;;
45114;SDS011;30877;43.706;10.780;2023-03-14T06:41:48;6.53;;;2.08;;
45114;SDS011;30877;43.706;10.780;2023-03-14T06:44:17;5.63;;;1.80;;
45114;SDS011;30877;43.706;10.780;2023-03-14T06:46:46;7.50;;;2.30;;
45114;SDS011;30877;43.706;10.780;2023-03-14T06:49:14;8.05;;;2.20;;
45114;SDS011;30877;43.706;10.780;2023-03-14T06:51:43;5.57;;;2.00;;
45114;SDS011;30877;43.706;10.780;2023-03-14T06:54:16;8.20;;;2.20;;
45114;SDS011;30877;43.706;10.780;2023-03-14T06:56:44;9.07;;;2.30;;
45114;SDS011;30877;43.706;10.780;2023-03-14T06:59:13;7.47;;;2.80;;
45114;SDS011;30877;43.706;10.780;2023-03-14T07:01:45;9.00;;;2.42;;
45114;SDS011;30877;43.706;10.780;2023-03-14T07:04:24;9.15;;;2.88;;
45114;SDS011;30877;43.706;10.780;2023-03-14T07:06:52;9.05;;;2.47;;
45114;SDS011;30877;43.706;10.780;2023-03-14T07:09:22;10.80;;;2.67;;
45114;SDS011;30877;43.706;10.780;2023-03-14T07:11:56;10.07;;;2.90;;
45114;SDS011;30877;43.706;10.780;2023-03-14T07:14:24;8.30;;;2.75;;
45114;SDS011;30877;43.706;10.780;2023-03-14T07:16:53;9.50;;;2.63;;
45114;SDS011;30877;43.706;10.780;2023-03-14T07:19:22;8.60;;;2.40;;
45114;SDS011;30877;43.706;10.780;2023-03-14T07:21:51;7.13;;;2.08;;
45114;SDS011;30877;43.706;10.780;2023-03-14T07:24:24;11.60;;;2.28;;
45114;SDS011;30877;43.706;10.780;2023-03-14T07:26:53;7.78;;;2.35;;
45114;SDS011;30877;43.706;10.780;2023-03-14T07:29:21;6.65;;;2.17;;
45114;SDS011;30877;43.706;10.780;2023-03-14T07:31:49;10.38;;;5.47;;
45114;SDS011;30877;43.706;10.780;2023-03-14T07:34:19;11.80;;;8.15;;
45114;SDS011;30877;43.706;10.780;2023-03-14T07:36:49;17.88;;;10.60;;
45114;SDS011;30877;43.706;10.780;2023-03-14T07:39:28;13.00;;;4.85;;
45114;SDS011;30877;43.706;10.780;2023-03-14T07:42:05;8.90;;;3.90;;
45114;SDS011;30877;43.706;10.780;2023-03-14T07:44:36;7.93;;;3.20;;
45114;SDS011;30877;43.706;10.780;2023-03-14T07:47:04;7.00;;;2.78;;
45114;SDS011;30877;43.706;10.780;2023-03-14T07:49:32;9.15;;;3.63;;
45114;SDS011;30877;43.706;10.780;2023-03-14T07:52:00;7.05;;;3.42;;
45114;SDS011;30877;43.706;10.780;2023-03-14T07:54:30;8.00;;;3.55;;
45114;SDS011;30877;43.706;10.780;2023-03-14T07:56:58;9.35;;;3.50;;
45114;SDS011;30877;43.706;10.780;2023-03-14T07:59:27;7.13;;;2.95;;
45114;SDS011;30877;43.706;10.780;2023-03-14T08:01:55;7.88;;;3.45;;
45114;SDS011;30877;43.706;10.780;2023-03-14T08:04:24;10.45;;;4.57;;
45114;SDS011;30877;43.706;10.780;2023-03-14T08:06:52;12.48;;;4.20;;
45114;SDS011;30877;43.706;10.780;2023-03-14T08:09:21;8.73;;;3.67;;
45114;SDS011;30877;43.706;10.780;2023-03-14T08:11:50;7.85;;;3.53;;
45114;SDS011;30877;43.706;10.780;2023-03-14T08:14:18;12.02;;;3.88;;
45114;SDS011;30877;43.706;10.780;2023-03-14T08:16:47;10.98;;;3.70;;
45114;SDS011;30877;43.706;10.780;2023-03-14T08:19:14;8.73;;;3.22;;
45114;SDS011;30877;43.706;10.780;2023-03-14T08:21:42;9.77;;;2.92;;
45114;SDS011;30877;43.706;10.780;2023-03-14T08:24:10;8.07;;;3.08;;
45114;SDS011;30877;43.706;10.780;2023-03-14T08:26:39;7.40;;;3.20;;
45114;SDS011;30877;43.706;10.780;2023-03-14T08:29:08;6.53;;;2.83;;
45114;SDS011;30877;43.706;10.780;2023-03-14T08:31:36;6.88;;;2.85;;
45114;SDS011;30877;43.706;10.780;2023-03-14T08:34:04;8.80;;;3.10;;
45114;SDS011;30877;43.706;10.780;2023-03-14T08:36:33;12.25;;;3.83;;
45114;SDS011;30877;43.706;10.780;2023-03-14T08:39:02;8.63;;;3.88;;
45114;SDS011;30877;43.706;10.780;2023-03-14T08:41:31;11.98;;;3.80;;
45114;SDS011;30877;43.706;10.780;2023-03-14T08:43:58;12.27;;;5.30;;
45114;SDS011;30877;43.706;10.780;2023-03-14T08:46:29;12.00;;;3.42;;
45114;SDS011;30877;43.706;10.780;2023-03-14T08:48:57;11.38;;;4.40;;
45114;SDS011;30877;43.706;10.780;2023-03-14T08:51:25;13.23;;;4.32;;
45114;SDS011;30877;43.706;10.780;2023-03-14T08:53:53;15.38;;;4.75;;
45114;SDS011;30877;43.706;10.780;2023-03-14T08:56:20;10.65;;;3.60;;
45114;SDS011;30877;43.706;10.780;2023-03-14T08:58:51;11.05;;;2.83;;
45114;SDS011;30877;43.706;10.780;2023-03-14T09:01:19;11.50;;;2.72;;
45114;SDS011;30877;43.706;10.780;2023-03-14T09:03:52;11.80;;;3.00;;
45114;SDS011;30877;43.706;10.780;2023-03-14T09:06:20;13.90;;;2.80;;
45114;SDS011;30877;43.706;10.780;2023-03-14T09:08:48;10.15;;;2.63;;
45114;SDS011;30877;43.706;10.780;2023-03-14T09:11:16;10.57;;;2.75;;
45114;SDS011;30877;43.706;10.780;2023-03-14T09:13:46;8.68;;;2.13;;
45114;SDS011;30877;43.706;10.780;2023-03-14T09:16:14;8.98;;;2.15;;
45114;SDS011;30877;43.706;10.780;2023-03-14T09:18:42;14.52;;;2.47;;
45114;SDS011;30877;43.706;10.780;2023-03-14T09:21:12;10.93;;;3.63;;
45114;SDS011;30877;43.706;10.780;2023-03-14T09:23:40;10.75;;;2.40;;
45114;SDS011;30877;43.706;10.780;2023-03-14T09:26:07;13.93;;;4.05;;
45114;SDS011;30877;43.706;10.780;2023-03-14T09:28:35;10.18;;;2.80;;
45114;SDS011;30877;43.706;10.780;2023-03-14T09:31:08;9.88;;;2.83;;
45114;SDS011;30877;43.706;10.780;2023-03-14T09:33:36;9.07;;;2.47;;
45114;SDS011;30877;43.706;10.780;2023-03-14T09:36:05;14.40;;;5.05;;
45114;SDS011;30877;43.706;10.780;2023-03-14T09:38:36;9.18;;;3.03;;
45114;SDS011;30877;43.706;10.780;2023-03-14T09:41:09;7.57;;;2.67;;
45114;SDS011;30877;43.706;10.780;2023-03-14T09:43:41;7.35;;;2.92;;
45114;SDS011;30877;43.706;10.780;2023-03-14T09:46:11;10.40;;;2.30;;
45114;SDS011;30877;43.706;10.780;2023-03-14T09:48:41;10.15;;;2.28;;
45114;SDS011;30877;43.706;10.780;2023-03-14T09:51:11;11.82;;;3.03;;
45114;SDS011;30877;43.706;10.780;2023-03-14T09:53:44;15.18;;;3.33;;
45114;SDS011;30877;43.706;10.780;2023-03-14T09:56:16;8.43;;;2.85;;
45114;SDS011;30877;43.706;10.780;2023-03-14T09:58:48;10.80;;;2.20;;
45114;SDS011;30877;43.706;10.780;2023-03-14T10:01:20;9.52;;;2.25;;
45114;SDS011;30877;43.706;10.780;2023-03-14T10:03:53;11.13;;;2.58;;
45114;SDS011;30877;43.706;10.780;2023-03-14T10:06:23;6.85;;;1.48;;
45114;SDS011;30877;43.706;10.780;2023-03-14T10:08:55;10.40;;;2.38;;
45114;SDS011;30877;43.706;10.780;2023-03-14T10:11:23;10.43;;;2.83;;
45114;SDS011;30877;43.706;10.780;2023-03-14T10:16:40;12.15;;;2.53;;
45114;SDS011;30877;43.706;10.780;2023-03-14T10:19:11;12.27;;;3.13;;
45114;SDS011;30877;43.706;10.780;2023-03-14T10:21:41;13.20;;;2.60;;
45114;SDS011;30877;43.706;10.780;2023-03-14T10:24:17;9.73;;;2.20;;
45114;SDS011;30877;43.706;10.780;2023-03-14T10:26:47;9.77;;;2.60;;
45114;SDS011;30877;43.706;10.780;2023-03-14T10:29:16;13.52;;;2.78;;
45114;SDS011;30877;43.706;10.780;2023-03-14T10:31:49;13.40;;;3.05;;
45114;SDS011;30877;43.706;10.780;2023-03-14T10:34:22;13.82;;;4.18;;
45114;SDS011;30877;43.706;10.780;2023-03-14T10:36:52;13.95;;;3.10;;
45114;SDS011;30877;43.706;10.780;2023-03-14T10:39:35;10.50;;;2.95;;
45114;SDS011;30877;43.706;10.780;2023-03-14T10:42:15;6.45;;;1.70;;
45114;SDS011;30877;43.706;10.780;2023-03-14T10:44:48;6.95;;;1.92;;
45114;SDS011;30877;43.706;10.780;2023-03-14T10:47:24;8.18;;;1.23;;
45114;SDS011;30877;43.706;10.780;2023-03-14T10:49:55;7.30;;;1.35;;
45114;SDS011;30877;43.706;10.780;2023-03-14T10:52:24;7.20;;;1.55;;
45114;SDS011;30877;43.706;10.780;2023-03-14T10:55:15;10.77;;;2.00;;
45114;SDS011;30877;43.706;10.780;2023-03-14T10:57:42;8.60;;;1.85;;
45114;SDS011;30877;43.706;10.780;2023-03-14T11:00:13;7.95;;;1.50;;
45114;SDS011;30877;43.706;10.780;2023-03-14T11:02:51;10.73;;;2.03;;
45114;SDS011;30877;43.706;10.780;2023-03-14T11:05:36;9.85;;;1.60;;
45114;SDS011;30877;43.706;10.780;2023-03-14T11:08:09;11.20;;;2.53;;
45114;SDS011;30877;43.706;10.780;2023-03-14T11:10:43;9.65;;;2.10;;
45114;SDS011;30877;43.706;10.780;2023-03-14T11:13:15;11.05;;;4.30;;
45114;SDS011;30877;43.706;10.780;2023-03-14T11:15:57;10.40;;;3.70;;
45114;SDS011;30877;43.706;10.780;2023-03-14T11:18:36;8.35;;;2.72;;
45114;SDS011;30877;43.706;10.780;2023-03-14T11:21:24;9.38;;;1.77;;
45114;SDS011;30877;43.706;10.780;2023-03-14T11:24:13;8.70;;;1.92;;
45114;SDS011;30877;43.706;10.780;2023-03-14T11:27:03;11.73;;;1.80;;
45114;SDS011;30877;43.706;10.780;2023-03-14T11:29:37;6.15;;;1.42;;
45114;SDS011;30877;43.706;10.780;2023-03-14T11:32:11;7.35;;;2.15;;
45114;SDS011;30877;43.706;10.780;2023-03-14T11:34:42;6.53;;;1.35;;
45114;SDS011;30877;43.706;10.780;2023-03-14T11:39:52;8.65;;;1.27;;
45114;SDS011;30877;43.706;10.780;2023-03-14T11:42:26;6.15;;;1.35;;
45114;SDS011;30877;43.706;10.780;2023-03-14T11:44:56;10.50;;;1.65;;
45114;SDS011;30877;43.706;10.780;2023-03-14T11:47:29;10.45;;;1.20;;
45114;SDS011;30877;43.706;10.780;2023-03-14T11:50:01;10.18;;;1.48;;
45114;SDS011;30877;43.706;10.780;2023-03-14T11:52:34;5.68;;;1.17;;
45114;SDS011;30877;43.706;10.780;2023-03-14T11:55:07;5.22;;;1.08;;
45114;SDS011;30877;43.706;10.780;2023-03-14T11:57:46;8.65;;;1.50;;
45114;SDS011;30877;43.706;10.780;2023-03-14T12:00:18;8.90;;;1.70;;
45114;SDS011;30877;43.706;10.780;2023-03-14T12:02:50;7.57;;;1.67;;
45114;SDS011;30877;43.706;10.780;2023-03-14T12:08:22;9.43;;;1.80;;
45114;SDS011;30877;43.706;10.780;2023-03-14T12:11:13;8.18;;;1.42;;
45114;SDS011;30877;43.706;10.780;2023-03-14T12:13:47;7.75;;;1.80;;
45114;SDS011;30877;43.706;10.780;2023-03-14T12:21:58;8.90;;;1.75;;
45114;SDS011;30877;43.706;10.780;2023-03-14T12:24:33;10.95;;;2.42;;
45114;SDS011;30877;43.706;10.780;2023-03-14T12:27:04;6.65;;;1.65;;
45114;SDS011;30877;43.706;10.780;2023-03-14T12:35:46;12.18;;;2.38;;
45114;SDS011;30877;43.706;10.780;2023-03-14T12:38:18;8.63;;;2.03;;
45114;SDS011;30877;43.706;10.780;2023-03-14T12:40:57;10.82;;;2.25;;
45114;SDS011;30877;43.706;10.780;2023-03-14T12:43:29;8.77;;;1.60;;
45114;SDS011;30877;43.706;10.780;2023-03-14T12:48:54;14.73;;;2.65;;
45114;SDS011;30877;43.706;10.780;2023-03-14T12:51:28;11.70;;;2.25;;
45114;SDS011;30877;43.706;10.780;2023-03-14T12:59:55;11.93;;;2.60;;
45114;SDS011;30877;43.706;10.780;2023-03-14T13:02:26;12.27;;;2.47;;
45114;SDS011;30877;43.706;10.780;2023-03-14T13:05:03;11.88;;;1.98;;
45114;SDS011;30877;43.706;10.780;2023-03-14T13:10:03;11.50;;;2.25;;
45114;SDS011;30877;43.706;10.780;2023-03-14T13:12:48;10.50;;;2.10;;
45114;SDS011;30877;43.706;10.780;2023-03-14T13:15:25;12.52;;;2.40;;
45114;SDS011;30877;43.706;10.780;2023-03-14T13:18:10;11.20;;;2.67;;
45114;SDS011;30877;43.706;10.780;2023-03-14T13:20:41;10.90;;;2.45;;
45114;SDS011;30877;43.706;10.780;2023-03-14T13:23:19;15.30;;;2.92;;
45114;SDS011;30877;43.706;10.780;2023-03-14T13:25:48;10.23;;;2.30;;
45114;SDS011;30877;43.706;10.780;2023-03-14T13:28:17;15.43;;;2.55;;
45114;SDS011;30877;43.706;10.780;2023-03-14T13:30:48;17.20;;;4.13;;
45114;SDS011;30877;43.706;10.780;2023-03-14T13:33:20;12.68;;;2.70;;
45114;SDS011;30877;43.706;10.780;2023-03-14T13:35:54;15.63;;;4.03;;
45114;SDS011;30877;43.706;10.780;2023-03-14T13:38:23;13.43;;;2.47;;
45114;SDS011;30877;43.706;10.780;2023-03-14T13:40:54;15.13;;;3.15;;
45114;SDS011;30877;43.706;10.780;2023-03-14T13:43:27;15.05;;;3.05;;
45114;SDS011;30877;43.706;10.780;2023-03-14T13:46:01;14.73;;;2.45;;
45114;SDS011;30877;43.706;10.780;2023-03-14T13:48:33;17.88;;;3.40;;
45114;SDS011;30877;43.706;10.780;2023-03-14T13:51:06;14.30;;;3.10;;
45114;SDS011;30877;43.706;10.780;2023-03-14T13:53:42;16.67;;;3.10;;
45114;SDS011;30877;43.706;10.780;2023-03-14T13:56:11;14.43;;;3.08;;
45114;SDS011;30877;43.706;10.780;2023-03-14T13:58:40;15.32;;;3.05;;
45114;SDS011;30877;43.706;10.780;2023-03-14T14:01:14;15.00;;;3.15;;
45114;SDS011;30877;43.706;10.780;2023-03-14T14:03:46;14.38;;;3.45;;
45114;SDS011;30877;43.706;10.780;2023-03-14T14:09:10;16.20;;;4.20;;
45114;SDS011;30877;43.706;10.780;2023-03-14T14:11:44;21.50;;;4.18;;
45114;SDS011;30877;43.706;10.780;2023-03-14T14:14:37;17.95;;;3.83;;
45114;SDS011;30877;43.706;10.780;2023-03-14T14:17:10;16.63;;;3.80;;
45114;SDS011;30877;43.706;10.780;2023-03-14T14:19:42;17.73;;;4.03;;
45114;SDS011;30877;43.706;10.780;2023-03-14T14:22:11;13.48;;;2.72;;
45114;SDS011;30877;43.706;10.780;2023-03-14T14:24:40;20.42;;;3.80;;
45114;SDS011;30877;43.706;10.780;2023-03-14T14:27:09;18.15;;;3.88;;
45114;SDS011;30877;43.706;10.780;2023-03-14T14:29:40;14.88;;;3.33;;
45114;SDS011;30877;43.706;10.780;2023-03-14T14:32:11;15.73;;;3.65;;
45114;SDS011;30877;43.706;10.780;2023-03-14T14:34:42;21.08;;;3.55;;
45114;SDS011;30877;43.706;10.780;2023-03-14T14:37:18;16.90;;;3.63;;
45114;SDS011;30877;43.706;10.780;2023-03-14T14:39:48;18.77;;;4.28;;
45114;SDS011;30877;43.706;10.780;2023-03-14T14:42:18;16.38;;;3.92;;
45114;SDS011;30877;43.706;10.780;2023-03-14T14:44:51;15.70;;;3.70;;
45114;SDS011;30877;43.706;10.780;2023-03-14T14:47:20;18.38;;;3.53;;
45114;SDS011;30877;43.706;10.780;2023-03-14T14:49:52;17.10;;;4.57;;
45114;SDS011;30877;43.706;10.780;2023-03-14T14:52:27;16.85;;;4.57;;
45114;SDS011;30877;43.706;10.780;2023-03-14T14:55:11;18.10;;;4.05;;
45114;SDS011;30877;43.706;10.780;2023-03-14T14:57:48;17.45;;;4.82;;
45114;SDS011;30877;43.706;10.780;2023-03-14T15:00:18;18.83;;;3.58;;
45114;SDS011;30877;43.706;10.780;2023-03-14T15:02:48;13.18;;;3.50;;
45114;SDS011;30877;43.706;10.780;2023-03-14T15:05:23;15.60;;;3.92;;
45114;SDS011;30877;43.706;10.780;2023-03-14T15:07:53;22.25;;;4.15;;
45114;SDS011;30877;43.706;10.780;2023-03-14T15:10:22;19.40;;;4.35;;
45114;SDS011;30877;43.706;10.780;2023-03-14T15:12:52;22.48;;;4.38;;
45114;SDS011;30877;43.706;10.780;2023-03-14T15:15:20;21.55;;;4.68;;
45114;SDS011;30877;43.706;10.780;2023-03-14T15:17:48;16.75;;;4.30;;
45114;SDS011;30877;43.706;10.780;2023-03-14T15:20:17;22.25;;;4.40;;
45114;SDS011;30877;43.706;10.780;2023-03-14T15:23:01;18.45;;;5.18;;
45114;SDS011;30877;43.706;10.780;2023-03-14T15:25:29;16.38;;;3.40;;
45114;SDS011;30877;43.706;10.780;2023-03-14T15:28:18;19.38;;;4.43;;
45114;SDS011;30877;43.706;10.780;2023-03-14T15:30:47;20.92;;;4.65;;
45114;SDS011;30877;43.706;10.780;2023-03-14T15:33:16;23.80;;;4.85;;
45114;SDS011;30877;43.706;10.780;2023-03-14T15:35:44;18.80;;;4.10;;
45114;SDS011;30877;43.706;10.780;2023-03-14T15:38:14;22.85;;;4.25;;
45114;SDS011;30877;43.706;10.780;2023-03-14T15:40:46;24.13;;;4.85;;